sensor_id;sensor_type;location;lat;lon;timestamp;P1;durP1;ratioP1;P2;durP2;ratioP2
72621;SDS011;60665;53.506;9.582;2022-10-16T00:01:54;12.35;;;3.95;;
72621;SDS011;60665;53.506;9.582;2022-10-16T00:04:19;9.02;;;4.00;;
72621;SDS011;60665;53.506;9.582;2022-10-16T00:06:44;7.80;;;3.97;;
72621;SDS011;60665;53.506;9.582;2022-10-16T00:09:10;8.05;;;3.65;;
72621;SDS011;60665;53.506;9.582;2022-10-16T00:11:36;7.38;;;3.55;;
72621;SDS011;60665;53.506;9.582;2022-10-16T00:14:03;7.50;;;3.50;;
72621;SDS011;60665;53.506;9.582;2022-10-16T00:16:30;7.75;;;3.10;;
72621;SDS011;60665;53.506;9.582;2022-10-16T00:18:56;8.15;;;3.28;;
72621;SDS011;60665;53.506;9.582;2022-10-16T00:21:23;7.75;;;3.15;;
72621;SDS011;60665;53.506;9.582;2022-10-16T00:23:58;8.30;;;3.30;;
72621;SDS011;60665;53.506;9.582;2022-10-16T00:26:25;6.55;;;2.72;;
72621;SDS011;60665;53.506;9.582;2022-10-16T00:28:51;6.53;;;3.22;;
72621;SDS011;60665;53.506;9.582;2022-10-16T00:31:17;10.07;;;2.88;;
72621;SDS011;60665;53.506;9.582;2022-10-16T00:33:44;5.93;;;2.72;;
72621;SDS011;60665;53.506;9.582;2022-10-16T00:36:10;9.07;;;3.47;;
72621;SDS011;60665;53.506;9.582;2022-10-16T00:38:37;7.60;;;2.78;;
72621;SDS011;60665;53.506;9.582;2022-10-16T00:41:05;8.77;;;3.17;;
72621;SDS011;60665;53.506;9.582;2022-10-16T00:43:33;6.40;;;2.60;;
72621;SDS011;60665;53.506;9.582;2022-10-16T00:48:43;6.57;;;2.35;;
72621;SDS011;60665;53.506;9.582;2022-10-16T00:51:13;6.45;;;2.63;;
72621;SDS011;60665;53.506;9.582;2022-10-16T00:53:38;9.18;;;2.55;;
72621;SDS011;60665;53.506;9.582;2022-10-16T00:56:04;6.97;;;2.35;;
72621;SDS011;60665;53.506;9.582;2022-10-16T00:58:29;6.07;;;2.60;;
72621;SDS011;60665;53.506;9.582;2022-10-16T01:00:55;9.65;;;2.63;;
72621;SDS011;60665;53.506;9.582;2022-10-16T01:06:05;7.20;;;2.60;;
72621;SDS011;60665;53.506;9.582;2022-10-16T01:08:57;7.38;;;2.25;;
72621;SDS011;60665;53.506;9.582;2022-10-16T01:11:30;6.65;;;2.40;;
72621;SDS011;60665;53.506;9.582;2022-10-16T01:14:00;5.60;;;2.25;;
72621;SDS011;60665;53.506;9.582;2022-10-16T01:16:33;5.13;;;2.08;;
72621;SDS011;60665;53.506;9.582;2022-10-16T01:19:12;4.20;;;1.85;;
72621;SDS011;60665;53.506;9.582;2022-10-16T01:21:44;6.00;;;2.03;;
72621;SDS011;60665;53.506;9.582;2022-10-16T01:26:50;5.38;;;2.00;;
72621;SDS011;60665;53.506;9.582;2022-10-16T01:29:25;7.97;;;2.17;;
72621;SDS011;60665;53.506;9.582;2022-10-16T01:31:55;9.05;;;2.22;;
72621;SDS011;60665;53.506;9.582;2022-10-16T01:34:33;5.15;;;1.85;;
72621;SDS011;60665;53.506;9.582;2022-10-16T01:37:04;6.05;;;1.80;;
72621;SDS011;60665;53.506;9.582;2022-10-16T01:39:32;4.43;;;1.70;;
72621;SDS011;60665;53.506;9.582;2022-10-16T01:42:11;7.53;;;1.80;;
72621;SDS011;60665;53.506;9.582;2022-10-16T01:44:40;4.45;;;2.00;;
72621;SDS011;60665;53.506;9.582;2022-10-16T01:47:07;5.97;;;1.50;;
72621;SDS011;60665;53.506;9.582;2022-10-16T01:49:34;6.43;;;1.60;;
72621;SDS011;60665;53.506;9.582;2022-10-16T01:52:02;4.47;;;1.63;;
72621;SDS011;60665;53.506;9.582;2022-10-16T01:54:31;5.05;;;1.60;;
72621;SDS011;60665;53.506;9.582;2022-10-16T01:56:57;3.90;;;1.65;;
72621;SDS011;60665;53.506;9.582;2022-10-16T01:59:24;4.93;;;1.50;;
72621;SDS011;60665;53.506;9.582;2022-10-16T02:01:58;4.15;;;1.60;;
72621;SDS011;60665;53.506;9.582;2022-10-16T02:04:29;5.25;;;1.50;;
72621;SDS011;60665;53.506;9.582;2022-10-16T02:07:01;5.03;;;1.40;;
72621;SDS011;60665;53.506;9.582;2022-10-16T02:09:27;6.40;;;1.63;;
72621;SDS011;60665;53.506;9.582;2022-10-16T02:11:53;4.35;;;1.45;;
72621;SDS011;60665;53.506;9.582;2022-10-16T02:14:19;7.35;;;1.45;;
72621;SDS011;60665;53.506;9.582;2022-10-16T02:16:45;3.58;;;1.20;;
72621;SDS011;60665;53.506;9.582;2022-10-16T02:19:15;5.25;;;1.52;;
72621;SDS011;60665;53.506;9.582;2022-10-16T02:27:03;3.38;;;1.17;;
72621;SDS011;60665;53.506;9.582;2022-10-16T02:29:33;3.95;;;1.33;;
72621;SDS011;60665;53.506;9.582;2022-10-16T02:32:04;3.33;;;1.10;;
72621;SDS011;60665;53.506;9.582;2022-10-16T02:34:31;8.38;;;1.27;;
72621;SDS011;60665;53.506;9.582;2022-10-16T02:36:58;5.38;;;1.65;;
72621;SDS011;60665;53.506;9.582;2022-10-16T02:39:25;5.55;;;1.20;;
72621;SDS011;60665;53.506;9.582;2022-10-16T02:41:51;4.68;;;1.73;;
72621;SDS011;60665;53.506;9.582;2022-10-16T02:44:17;3.50;;;1.23;;
72621;SDS011;60665;53.506;9.582;2022-10-16T02:46:42;8.02;;;1.30;;
72621;SDS011;60665;53.506;9.582;2022-10-16T02:49:07;4.68;;;1.10;;
72621;SDS011;60665;53.506;9.582;2022-10-16T02:51:33;3.95;;;1.20;;
72621;SDS011;60665;53.506;9.582;2022-10-16T02:53:58;4.85;;;1.42;;
72621;SDS011;60665;53.506;9.582;2022-10-16T02:56:23;3.40;;;1.20;;
72621;SDS011;60665;53.506;9.582;2022-10-16T02:58:49;7.85;;;1.35;;
72621;SDS011;60665;53.506;9.582;2022-10-16T03:01:14;5.95;;;1.15;;
72621;SDS011;60665;53.506;9.582;2022-10-16T03:03:41;3.47;;;1.23;;
72621;SDS011;60665;53.506;9.582;2022-10-16T03:06:07;5.38;;;1.27;;
72621;SDS011;60665;53.506;9.582;2022-10-16T03:08:32;4.70;;;1.52;;
72621;SDS011;60665;53.506;9.582;2022-10-16T03:10:58;4.15;;;1.30;;
72621;SDS011;60665;53.506;9.582;2022-10-16T03:13:23;6.28;;;1.33;;
72621;SDS011;60665;53.506;9.582;2022-10-16T03:15:48;5.03;;;1.10;;
72621;SDS011;60665;53.506;9.582;2022-10-16T03:18:14;5.70;;;1.13;;
72621;SDS011;60665;53.506;9.582;2022-10-16T03:20:39;5.90;;;1.42;;
72621;SDS011;60665;53.506;9.582;2022-10-16T03:23:05;8.88;;;1.20;;
72621;SDS011;60665;53.506;9.582;2022-10-16T03:25:31;8.23;;;1.70;;
72621;SDS011;60665;53.506;9.582;2022-10-16T03:27:57;4.57;;;1.33;;
72621;SDS011;60665;53.506;9.582;2022-10-16T03:30:22;6.90;;;1.33;;
72621;SDS011;60665;53.506;9.582;2022-10-16T03:32:47;4.28;;;1.10;;
72621;SDS011;60665;53.506;9.582;2022-10-16T03:35:13;6.72;;;1.27;;
72621;SDS011;60665;53.506;9.582;2022-10-16T03:37:38;3.65;;;1.30;;
72621;SDS011;60665;53.506;9.582;2022-10-16T03:40:04;4.57;;;1.38;;
72621;SDS011;60665;53.506;9.582;2022-10-16T03:42:29;4.93;;;1.20;;
72621;SDS011;60665;53.506;9.582;2022-10-16T03:44:55;3.72;;;1.20;;
72621;SDS011;60665;53.506;9.582;2022-10-16T03:47:20;8.55;;;3.15;;
72621;SDS011;60665;53.506;9.582;2022-10-16T03:49:48;3.40;;;1.30;;
72621;SDS011;60665;53.506;9.582;2022-10-16T03:52:13;5.53;;;1.15;;
72621;SDS011;60665;53.506;9.582;2022-10-16T03:54:38;4.97;;;1.27;;
72621;SDS011;60665;53.506;9.582;2022-10-16T03:57:04;7.15;;;1.45;;
72621;SDS011;60665;53.506;9.582;2022-10-16T03:59:29;6.05;;;1.40;;
72621;SDS011;60665;53.506;9.582;2022-10-16T04:01:55;6.20;;;1.35;;
72621;SDS011;60665;53.506;9.582;2022-10-16T04:04:20;4.95;;;1.50;;
72621;SDS011;60665;53.506;9.582;2022-10-16T04:06:45;5.00;;;1.10;;
72621;SDS011;60665;53.506;9.582;2022-10-16T04:09:11;3.92;;;1.38;;
72621;SDS011;60665;53.506;9.582;2022-10-16T04:11:36;4.70;;;1.35;;
72621;SDS011;60665;53.506;9.582;2022-10-16T04:14:01;5.22;;;1.40;;
72621;SDS011;60665;53.506;9.582;2022-10-16T04:16:27;6.78;;;1.77;;
72621;SDS011;60665;53.506;9.582;2022-10-16T04:18:52;5.43;;;1.52;;
72621;SDS011;60665;53.506;9.582;2022-10-16T04:21:18;5.00;;;1.30;;
72621;SDS011;60665;53.506;9.582;2022-10-16T04:23:43;4.53;;;1.30;;
72621;SDS011;60665;53.506;9.582;2022-10-16T04:26:08;6.45;;;1.25;;
72621;SDS011;60665;53.506;9.582;2022-10-16T04:28:35;6.00;;;1.20;;
72621;SDS011;60665;53.506;9.582;2022-10-16T04:31:03;4.07;;;1.25;;
72621;SDS011;60665;53.506;9.582;2022-10-16T04:33:29;6.70;;;1.48;;
72621;SDS011;60665;53.506;9.582;2022-10-16T04:35:57;4.18;;;1.35;;
72621;SDS011;60665;53.506;9.582;2022-10-16T04:38:23;5.20;;;1.27;;
72621;SDS011;60665;53.506;9.582;2022-10-16T04:40:49;3.72;;;1.17;;
72621;SDS011;60665;53.506;9.582;2022-10-16T04:43:15;4.70;;;1.48;;
72621;SDS011;60665;53.506;9.582;2022-10-16T04:45:40;6.22;;;1.60;;
72621;SDS011;60665;53.506;9.582;2022-10-16T04:48:05;4.70;;;1.55;;
72621;SDS011;60665;53.506;9.582;2022-10-16T04:50:30;8.60;;;1.60;;
72621;SDS011;60665;53.506;9.582;2022-10-16T04:52:56;4.80;;;1.38;;
72621;SDS011;60665;53.506;9.582;2022-10-16T04:55:21;3.60;;;1.20;;
72621;SDS011;60665;53.506;9.582;2022-10-16T04:57:46;7.25;;;1.40;;
72621;SDS011;60665;53.506;9.582;2022-10-16T05:00:12;6.15;;;1.60;;
72621;SDS011;60665;53.506;9.582;2022-10-16T05:02:37;6.95;;;1.70;;
72621;SDS011;60665;53.506;9.582;2022-10-16T05:05:03;6.03;;;1.70;;
72621;SDS011;60665;53.506;9.582;2022-10-16T05:07:29;6.55;;;1.83;;
72621;SDS011;60665;53.506;9.582;2022-10-16T05:09:54;6.07;;;1.88;;
72621;SDS011;60665;53.506;9.582;2022-10-16T05:12:19;6.82;;;2.05;;
72621;SDS011;60665;53.506;9.582;2022-10-16T05:14:45;6.63;;;1.90;;
72621;SDS011;60665;53.506;9.582;2022-10-16T05:17:10;7.10;;;2.08;;
72621;SDS011;60665;53.506;9.582;2022-10-16T05:19:36;7.38;;;2.30;;
72621;SDS011;60665;53.506;9.582;2022-10-16T05:22:01;7.60;;;2.28;;
72621;SDS011;60665;53.506;9.582;2022-10-16T05:24:26;5.88;;;2.22;;
72621;SDS011;60665;53.506;9.582;2022-10-16T05:26:52;6.35;;;2.28;;
72621;SDS011;60665;53.506;9.582;2022-10-16T05:29:17;6.20;;;1.88;;
72621;SDS011;60665;53.506;9.582;2022-10-16T05:31:43;5.88;;;2.25;;
72621;SDS011;60665;53.506;9.582;2022-10-16T05:34:08;8.77;;;2.50;;
72621;SDS011;60665;53.506;9.582;2022-10-16T05:36:33;6.43;;;2.50;;
72621;SDS011;60665;53.506;9.582;2022-10-16T05:38:59;8.77;;;2.38;;
72621;SDS011;60665;53.506;9.582;2022-10-16T05:41:24;6.90;;;2.60;;
72621;SDS011;60665;53.506;9.582;2022-10-16T05:43:51;8.25;;;2.65;;
72621;SDS011;60665;53.506;9.582;2022-10-16T05:46:17;9.13;;;2.70;;
72621;SDS011;60665;53.506;9.582;2022-10-16T05:48:42;6.50;;;2.40;;
72621;SDS011;60665;53.506;9.582;2022-10-16T05:51:09;10.65;;;2.70;;
72621;SDS011;60665;53.506;9.582;2022-10-16T05:53:37;7.78;;;2.90;;
72621;SDS011;60665;53.506;9.582;2022-10-16T05:56:03;6.47;;;2.80;;
72621;SDS011;60665;53.506;9.582;2022-10-16T05:58:30;7.15;;;2.70;;
72621;SDS011;60665;53.506;9.582;2022-10-16T06:00:58;6.90;;;2.75;;
72621;SDS011;60665;53.506;9.582;2022-10-16T06:03:45;13.13;;;3.00;;
72621;SDS011;60665;53.506;9.582;2022-10-16T06:06:12;8.68;;;2.83;;
72621;SDS011;60665;53.506;9.582;2022-10-16T06:08:39;7.30;;;2.70;;
72621;SDS011;60665;53.506;9.582;2022-10-16T06:11:05;7.15;;;2.78;;
72621;SDS011;60665;53.506;9.582;2022-10-16T06:13:32;9.52;;;2.70;;
72621;SDS011;60665;53.506;9.582;2022-10-16T06:15:58;8.15;;;3.13;;
72621;SDS011;60665;53.506;9.582;2022-10-16T06:18:25;7.53;;;3.13;;
72621;SDS011;60665;53.506;9.582;2022-10-16T06:20:51;7.57;;;2.63;;
72621;SDS011;60665;53.506;9.582;2022-10-16T06:23:16;7.75;;;3.00;;
72621;SDS011;60665;53.506;9.582;2022-10-16T06:25:41;9.85;;;2.95;;
72621;SDS011;60665;53.506;9.582;2022-10-16T06:28:07;7.38;;;3.03;;
72621;SDS011;60665;53.506;9.582;2022-10-16T06:30:32;7.82;;;2.72;;
72621;SDS011;60665;53.506;9.582;2022-10-16T06:32:57;10.10;;;3.05;;
72621;SDS011;60665;53.506;9.582;2022-10-16T06:35:23;8.57;;;3.10;;
72621;SDS011;60665;53.506;9.582;2022-10-16T06:37:48;8.73;;;2.80;;
72621;SDS011;60665;53.506;9.582;2022-10-16T06:40:14;7.90;;;3.95;;
72621;SDS011;60665;53.506;9.582;2022-10-16T06:42:40;7.90;;;3.42;;
72621;SDS011;60665;53.506;9.582;2022-10-16T06:45:05;6.68;;;2.92;;
72621;SDS011;60665;53.506;9.582;2022-10-16T06:47:31;6.85;;;3.00;;
72621;SDS011;60665;53.506;9.582;2022-10-16T06:49:56;6.72;;;2.90;;
72621;SDS011;60665;53.506;9.582;2022-10-16T06:52:22;9.43;;;3.58;;
72621;SDS011;60665;53.506;9.582;2022-10-16T06:54:47;6.55;;;2.63;;
72621;SDS011;60665;53.506;9.582;2022-10-16T06:57:12;7.10;;;3.08;;
72621;SDS011;60665;53.506;9.582;2022-10-16T06:59:38;6.22;;;2.58;;
72621;SDS011;60665;53.506;9.582;2022-10-16T07:02:03;7.10;;;2.90;;
72621;SDS011;60665;53.506;9.582;2022-10-16T07:04:28;8.70;;;3.10;;
72621;SDS011;60665;53.506;9.582;2022-10-16T07:06:54;9.90;;;2.70;;
72621;SDS011;60665;53.506;9.582;2022-10-16T07:09:19;7.63;;;2.88;;
72621;SDS011;60665;53.506;9.582;2022-10-16T07:11:44;8.60;;;3.20;;
72621;SDS011;60665;53.506;9.582;2022-10-16T07:14:15;6.38;;;2.55;;
72621;SDS011;60665;53.506;9.582;2022-10-16T07:16:42;8.80;;;2.83;;
72621;SDS011;60665;53.506;9.582;2022-10-16T07:19:08;8.25;;;2.85;;
72621;SDS011;60665;53.506;9.582;2022-10-16T07:21:34;8.80;;;3.03;;
72621;SDS011;60665;53.506;9.582;2022-10-16T07:24:03;8.55;;;3.00;;
72621;SDS011;60665;53.506;9.582;2022-10-16T07:26:35;7.20;;;2.70;;
72621;SDS011;60665;53.506;9.582;2022-10-16T07:29:01;7.18;;;3.40;;
72621;SDS011;60665;53.506;9.582;2022-10-16T07:31:28;6.55;;;3.05;;
72621;SDS011;60665;53.506;9.582;2022-10-16T07:33:53;8.63;;;2.70;;
72621;SDS011;60665;53.506;9.582;2022-10-16T07:36:19;7.22;;;2.97;;
72621;SDS011;60665;53.506;9.582;2022-10-16T07:38:46;7.22;;;2.88;;
72621;SDS011;60665;53.506;9.582;2022-10-16T07:41:12;4.60;;;2.38;;
72621;SDS011;60665;53.506;9.582;2022-10-16T07:43:39;6.78;;;2.88;;
72621;SDS011;60665;53.506;9.582;2022-10-16T07:46:04;6.90;;;2.70;;
72621;SDS011;60665;53.506;9.582;2022-10-16T07:48:31;5.35;;;2.63;;
72621;SDS011;60665;53.506;9.582;2022-10-16T07:51:00;8.85;;;2.78;;
72621;SDS011;60665;53.506;9.582;2022-10-16T07:53:27;8.00;;;3.10;;
72621;SDS011;60665;53.506;9.582;2022-10-16T07:55:56;6.85;;;3.00;;
72621;SDS011;60665;53.506;9.582;2022-10-16T07:58:23;6.47;;;2.83;;
72621;SDS011;60665;53.506;9.582;2022-10-16T08:00:48;8.57;;;2.90;;
72621;SDS011;60665;53.506;9.582;2022-10-16T08:03:14;6.05;;;2.80;;
72621;SDS011;60665;53.506;9.582;2022-10-16T08:05:39;8.15;;;2.55;;
72621;SDS011;60665;53.506;9.582;2022-10-16T08:08:04;8.93;;;3.13;;
72621;SDS011;60665;53.506;9.582;2022-10-16T08:10:30;9.90;;;2.85;;
72621;SDS011;60665;53.506;9.582;2022-10-16T08:12:56;8.55;;;2.80;;
72621;SDS011;60665;53.506;9.582;2022-10-16T08:15:21;9.77;;;2.53;;
72621;SDS011;60665;53.506;9.582;2022-10-16T08:17:54;8.02;;;2.95;;
72621;SDS011;60665;53.506;9.582;2022-10-16T08:20:23;12.98;;;3.15;;
72621;SDS011;60665;53.506;9.582;2022-10-16T08:22:48;6.82;;;2.75;;
72621;SDS011;60665;53.506;9.582;2022-10-16T08:25:14;6.60;;;2.80;;
72621;SDS011;60665;53.506;9.582;2022-10-16T08:27:39;6.30;;;2.58;;
72621;SDS011;60665;53.506;9.582;2022-10-16T08:30:04;8.20;;;2.50;;
72621;SDS011;60665;53.506;9.582;2022-10-16T08:32:30;6.93;;;2.58;;
72621;SDS011;60665;53.506;9.582;2022-10-16T08:34:55;6.40;;;2.65;;
72621;SDS011;60665;53.506;9.582;2022-10-16T08:37:21;6.63;;;2.50;;
72621;SDS011;60665;53.506;9.582;2022-10-16T08:39:46;6.57;;;2.92;;
72621;SDS011;60665;53.506;9.582;2022-10-16T08:45:08;5.55;;;2.20;;
72621;SDS011;60665;53.506;9.582;2022-10-16T08:50:38;6.43;;;2.20;;
72621;SDS011;60665;53.506;9.582;2022-10-16T08:53:05;6.70;;;2.38;;
72621;SDS011;60665;53.506;9.582;2022-10-16T08:55:37;7.20;;;2.40;;
72621;SDS011;60665;53.506;9.582;2022-10-16T08:58:22;5.75;;;2.38;;
72621;SDS011;60665;53.506;9.582;2022-10-16T09:00:51;5.55;;;2.30;;
72621;SDS011;60665;53.506;9.582;2022-10-16T09:09:19;8.00;;;2.10;;
72621;SDS011;60665;53.506;9.582;2022-10-16T09:12:07;6.00;;;2.00;;
72621;SDS011;60665;53.506;9.582;2022-10-16T09:17:20;4.65;;;1.70;;
72621;SDS011;60665;53.506;9.582;2022-10-16T09:20:02;5.95;;;1.90;;
72621;SDS011;60665;53.506;9.582;2022-10-16T09:22:35;7.13;;;1.73;;
72621;SDS011;60665;53.506;9.582;2022-10-16T09:25:04;5.70;;;1.73;;
72621;SDS011;60665;53.506;9.582;2022-10-16T09:27:36;6.88;;;1.48;;
72621;SDS011;60665;53.506;9.582;2022-10-16T09:30:09;5.43;;;1.30;;
72621;SDS011;60665;53.506;9.582;2022-10-16T09:32:37;4.35;;;1.40;;
72621;SDS011;60665;53.506;9.582;2022-10-16T09:35:03;5.28;;;1.50;;
72621;SDS011;60665;53.506;9.582;2022-10-16T09:37:29;6.05;;;1.52;;
72621;SDS011;60665;53.506;9.582;2022-10-16T09:39:56;3.92;;;1.30;;
72621;SDS011;60665;53.506;9.582;2022-10-16T09:44:48;4.57;;;1.25;;
72621;SDS011;60665;53.506;9.582;2022-10-16T09:47:16;4.75;;;1.60;;
72621;SDS011;60665;53.506;9.582;2022-10-16T09:52:21;6.53;;;1.45;;
72621;SDS011;60665;53.506;9.582;2022-10-16T09:57:19;4.50;;;1.55;;
72621;SDS011;60665;53.506;9.582;2022-10-16T09:59:49;5.07;;;1.52;;
72621;SDS011;60665;53.506;9.582;2022-10-16T10:02:16;5.43;;;1.40;;
72621;SDS011;60665;53.506;9.582;2022-10-16T10:04:50;5.72;;;1.73;;
72621;SDS011;60665;53.506;9.582;2022-10-16T10:07:21;6.70;;;1.50;;
72621;SDS011;60665;53.506;9.582;2022-10-16T10:09:50;5.10;;;1.23;;
72621;SDS011;60665;53.506;9.582;2022-10-16T10:12:28;5.00;;;1.30;;
72621;SDS011;60665;53.506;9.582;2022-10-16T10:14:58;5.25;;;1.23;;
72621;SDS011;60665;53.506;9.582;2022-10-16T10:17:32;5.45;;;1.40;;
72621;SDS011;60665;53.506;9.582;2022-10-16T10:20:00;6.65;;;1.02;;
72621;SDS011;60665;53.506;9.582;2022-10-16T10:22:44;6.72;;;1.35;;
72621;SDS011;60665;53.506;9.582;2022-10-16T10:30:35;7.85;;;1.63;;
72621;SDS011;60665;53.506;9.582;2022-10-16T10:39:15;4.38;;;1.00;;
72621;SDS011;60665;53.506;9.582;2022-10-16T10:47:13;4.38;;;1.20;;
72621;SDS011;60665;53.506;9.582;2022-10-16T10:49:49;5.18;;;1.33;;
72621;SDS011;60665;53.506;9.582;2022-10-16T10:52:28;3.92;;;1.40;;
72621;SDS011;60665;53.506;9.582;2022-10-16T10:55:02;4.45;;;1.27;;
72621;SDS011;60665;53.506;9.582;2022-10-16T11:06:33;7.32;;;1.10;;
72621;SDS011;60665;53.506;9.582;2022-10-16T11:09:12;8.27;;;1.30;;
72621;SDS011;60665;53.506;9.582;2022-10-16T11:11:48;7.88;;;1.42;;
72621;SDS011;60665;53.506;9.582;2022-10-16T11:14:21;3.70;;;0.98;;
72621;SDS011;60665;53.506;9.582;2022-10-16T11:16:56;3.90;;;1.10;;
72621;SDS011;60665;53.506;9.582;2022-10-16T11:19:35;2.95;;;0.90;;
72621;SDS011;60665;53.506;9.582;2022-10-16T11:25:20;7.70;;;1.30;;
72621;SDS011;60665;53.506;9.582;2022-10-16T11:27:52;5.82;;;1.35;;
72621;SDS011;60665;53.506;9.582;2022-10-16T11:30:20;5.28;;;1.20;;
72621;SDS011;60665;53.506;9.582;2022-10-16T11:35:43;6.82;;;1.38;;
72621;SDS011;60665;53.506;9.582;2022-10-16T11:38:20;4.07;;;1.10;;
72621;SDS011;60665;53.506;9.582;2022-10-16T11:40:50;4.05;;;1.10;;
72621;SDS011;60665;53.506;9.582;2022-10-16T11:43:22;5.70;;;1.17;;
72621;SDS011;60665;53.506;9.582;2022-10-16T11:45:51;3.80;;;0.93;;
72621;SDS011;60665;53.506;9.582;2022-10-16T11:51:26;4.22;;;1.42;;
72621;SDS011;60665;53.506;9.582;2022-10-16T11:54:02;3.53;;;1.17;;
72621;SDS011;60665;53.506;9.582;2022-10-16T11:56:32;5.10;;;1.10;;
72621;SDS011;60665;53.506;9.582;2022-10-16T11:59:03;6.07;;;1.30;;
72621;SDS011;60665;53.506;9.582;2022-10-16T12:01:43;4.20;;;1.05;;
72621;SDS011;60665;53.506;9.582;2022-10-16T12:06:57;7.28;;;1.05;;
72621;SDS011;60665;53.506;9.582;2022-10-16T12:09:29;5.20;;;1.10;;
72621;SDS011;60665;53.506;9.582;2022-10-16T12:11:56;5.53;;;1.02;;
72621;SDS011;60665;53.506;9.582;2022-10-16T12:17:25;4.80;;;1.15;;
72621;SDS011;60665;53.506;9.582;2022-10-16T12:20:12;5.13;;;1.23;;
72621;SDS011;60665;53.506;9.582;2022-10-16T12:22:49;4.35;;;0.73;;
72621;SDS011;60665;53.506;9.582;2022-10-16T12:27:57;5.38;;;1.10;;
72621;SDS011;60665;53.506;9.582;2022-10-16T12:30:25;3.60;;;1.10;;
72621;SDS011;60665;53.506;9.582;2022-10-16T12:33:01;8.10;;;1.10;;
72621;SDS011;60665;53.506;9.582;2022-10-16T12:35:30;3.28;;;0.90;;
72621;SDS011;60665;53.506;9.582;2022-10-16T12:38:07;3.03;;;0.88;;
72621;SDS011;60665;53.506;9.582;2022-10-16T12:40:41;3.95;;;0.90;;
72621;SDS011;60665;53.506;9.582;2022-10-16T12:45:46;4.30;;;1.05;;
72621;SDS011;60665;53.506;9.582;2022-10-16T12:48:19;5.53;;;0.90;;
72621;SDS011;60665;53.506;9.582;2022-10-16T12:50:46;5.93;;;0.80;;
72621;SDS011;60665;53.506;9.582;2022-10-16T12:58:50;6.03;;;0.85;;
72621;SDS011;60665;53.506;9.582;2022-10-16T13:09:19;4.97;;;0.73;;
72621;SDS011;60665;53.506;9.582;2022-10-16T13:19:45;3.63;;;0.75;;
72621;SDS011;60665;53.506;9.582;2022-10-16T13:25:23;4.57;;;0.80;;
72621;SDS011;60665;53.506;9.582;2022-10-16T13:27:53;5.70;;;0.80;;
72621;SDS011;60665;53.506;9.582;2022-10-16T13:30:25;3.17;;;0.77;;
72621;SDS011;60665;53.506;9.582;2022-10-16T13:33:00;5.47;;;0.90;;
72621;SDS011;60665;53.506;9.582;2022-10-16T13:35:28;5.90;;;1.00;;
72621;SDS011;60665;53.506;9.582;2022-10-16T13:40:36;5.60;;;1.13;;
72621;SDS011;60665;53.506;9.582;2022-10-16T13:43:01;5.00;;;0.70;;
72621;SDS011;60665;53.506;9.582;2022-10-16T13:45:27;4.25;;;1.17;;
72621;SDS011;60665;53.506;9.582;2022-10-16T13:48:02;5.03;;;0.80;;
72621;SDS011;60665;53.506;9.582;2022-10-16T13:50:28;7.40;;;1.00;;
72621;SDS011;60665;53.506;9.582;2022-10-16T13:53:03;4.00;;;0.77;;
72621;SDS011;60665;53.506;9.582;2022-10-16T13:55:31;4.20;;;0.82;;
72621;SDS011;60665;53.506;9.582;2022-10-16T13:58:07;6.63;;;0.90;;
72621;SDS011;60665;53.506;9.582;2022-10-16T14:00:33;5.53;;;0.98;;
72621;SDS011;60665;53.506;9.582;2022-10-16T14:03:04;5.20;;;0.80;;
72621;SDS011;60665;53.506;9.582;2022-10-16T14:05:31;5.93;;;0.90;;
72621;SDS011;60665;53.506;9.582;2022-10-16T14:07:57;5.90;;;0.82;;
72621;SDS011;60665;53.506;9.582;2022-10-16T14:10:24;5.25;;;1.02;;
72621;SDS011;60665;53.506;9.582;2022-10-16T14:13:13;8.55;;;1.02;;
72621;SDS011;60665;53.506;9.582;2022-10-16T14:15:45;5.63;;;0.90;;
72621;SDS011;60665;53.506;9.582;2022-10-16T14:18:20;5.25;;;1.05;;
72621;SDS011;60665;53.506;9.582;2022-10-16T14:20:46;4.72;;;0.90;;
72621;SDS011;60665;53.506;9.582;2022-10-16T14:23:21;6.57;;;1.00;;
72621;SDS011;60665;53.506;9.582;2022-10-16T14:25:48;5.93;;;1.33;;
72621;SDS011;60665;53.506;9.582;2022-10-16T14:28:17;7.50;;;0.90;;
72621;SDS011;60665;53.506;9.582;2022-10-16T14:30:55;8.02;;;1.63;;
72621;SDS011;60665;53.506;9.582;2022-10-16T14:38:28;3.70;;;0.80;;
72621;SDS011;60665;53.506;9.582;2022-10-16T14:40:54;6.13;;;1.27;;
72621;SDS011;60665;53.506;9.582;2022-10-16T14:46:19;4.55;;;0.90;;
72621;SDS011;60665;53.506;9.582;2022-10-16T14:48:46;4.20;;;0.90;;
72621;SDS011;60665;53.506;9.582;2022-10-16T14:51:17;6.15;;;1.02;;
72621;SDS011;60665;53.506;9.582;2022-10-16T14:53:43;5.00;;;1.30;;
72621;SDS011;60665;53.506;9.582;2022-10-16T14:56:14;4.60;;;0.63;;
72621;SDS011;60665;53.506;9.582;2022-10-16T14:58:42;4.30;;;0.77;;
72621;SDS011;60665;53.506;9.582;2022-10-16T15:01:08;5.43;;;1.00;;
72621;SDS011;60665;53.506;9.582;2022-10-16T15:03:35;5.20;;;0.90;;
72621;SDS011;60665;53.506;9.582;2022-10-16T15:06:01;5.45;;;1.10;;
72621;SDS011;60665;53.506;9.582;2022-10-16T15:08:26;5.90;;;1.05;;
72621;SDS011;60665;53.506;9.582;2022-10-16T15:10:51;3.10;;;0.73;;
72621;SDS011;60665;53.506;9.582;2022-10-16T15:13:17;5.25;;;0.65;;
72621;SDS011;60665;53.506;9.582;2022-10-16T15:15:43;6.60;;;0.90;;
72621;SDS011;60665;53.506;9.582;2022-10-16T15:18:10;6.50;;;1.10;;
72621;SDS011;60665;53.506;9.582;2022-10-16T15:20:36;7.90;;;0.90;;
72621;SDS011;60665;53.506;9.582;2022-10-16T15:23:03;6.18;;;0.95;;
72621;SDS011;60665;53.506;9.582;2022-10-16T15:25:33;6.32;;;1.00;;
72621;SDS011;60665;53.506;9.582;2022-10-16T15:28:04;5.55;;;0.90;;
72621;SDS011;60665;53.506;9.582;2022-10-16T15:30:30;7.18;;;0.90;;
72621;SDS011;60665;53.506;9.582;2022-10-16T15:32:55;4.82;;;1.20;;
72621;SDS011;60665;53.506;9.582;2022-10-16T15:35:21;4.82;;;0.80;;
72621;SDS011;60665;53.506;9.582;2022-10-16T15:37:47;5.40;;;0.90;;
72621;SDS011;60665;53.506;9.582;2022-10-16T15:40:13;7.38;;;0.90;;
72621;SDS011;60665;53.506;9.582;2022-10-16T15:42:39;4.95;;;1.33;;
72621;SDS011;60665;53.506;9.582;2022-10-16T15:45:05;4.72;;;0.90;;
72621;SDS011;60665;53.506;9.582;2022-10-16T15:47:31;7.30;;;0.80;;
72621;SDS011;60665;53.506;9.582;2022-10-16T15:49:57;4.70;;;1.35;;
72621;SDS011;60665;53.506;9.582;2022-10-16T15:52:22;6.97;;;1.00;;
72621;SDS011;60665;53.506;9.582;2022-10-16T15:54:48;4.82;;;0.90;;
72621;SDS011;60665;53.506;9.582;2022-10-16T15:57:13;4.55;;;1.00;;
72621;SDS011;60665;53.506;9.582;2022-10-16T15:59:38;7.97;;;1.13;;
72621;SDS011;60665;53.506;9.582;2022-10-16T16:02:04;4.43;;;1.10;;
72621;SDS011;60665;53.506;9.582;2022-10-16T16:04:29;6.45;;;0.93;;
72621;SDS011;60665;53.506;9.582;2022-10-16T16:06:55;5.35;;;0.82;;
72621;SDS011;60665;53.506;9.582;2022-10-16T16:09:21;4.68;;;0.82;;
72621;SDS011;60665;53.506;9.582;2022-10-16T16:11:46;5.85;;;1.05;;
72621;SDS011;60665;53.506;9.582;2022-10-16T16:14:12;6.35;;;1.05;;
72621;SDS011;60665;53.506;9.582;2022-10-16T16:16:38;7.28;;;1.13;;
72621;SDS011;60665;53.506;9.582;2022-10-16T16:19:04;4.82;;;0.90;;
72621;SDS011;60665;53.506;9.582;2022-10-16T16:21:31;4.85;;;1.00;;
72621;SDS011;60665;53.506;9.582;2022-10-16T16:23:56;5.05;;;1.00;;
72621;SDS011;60665;53.506;9.582;2022-10-16T16:26:23;6.60;;;1.20;;
72621;SDS011;60665;53.506;9.582;2022-10-16T16:28:53;6.47;;;0.88;;
72621;SDS011;60665;53.506;9.582;2022-10-16T16:31:20;7.82;;;1.15;;
72621;SDS011;60665;53.506;9.582;2022-10-16T16:33:49;5.43;;;1.00;;
72621;SDS011;60665;53.506;9.582;2022-10-16T16:36:16;5.20;;;1.02;;
72621;SDS011;60665;53.506;9.582;2022-10-16T16:38:43;6.68;;;1.02;;
72621;SDS011;60665;53.506;9.582;2022-10-16T16:41:12;4.68;;;0.95;;
72621;SDS011;60665;53.506;9.582;2022-10-16T16:43:37;5.50;;;0.98;;
72621;SDS011;60665;53.506;9.582;2022-10-16T16:46:02;5.57;;;1.23;;
72621;SDS011;60665;53.506;9.582;2022-10-16T16:48:28;5.50;;;1.00;;
72621;SDS011;60665;53.506;9.582;2022-10-16T16:50:54;6.78;;;0.88;;